Latest Weather Observations for Cape Otway

IDV60801

Issued at 6:32 am EST Sunday 31 July 2016 (issued every 30 minutes, with the page automatically refreshed every 10 minutes)

About weather observations | Map of weather stations | Latest weather observations for VIC | Other Formats
Station Details ID: 090015 Name: CAPE OTWAY LIGHTHOUSE Lat: -38.86 Lon: 143.51 Height: 82.0 m
Data from the previous 72 hours. | See also: Recent months at Cape Otway
Date/Time
EST
Temp
°C
App
Temp
°C
Dew
Point
°C
Rel
Hum
%
Delta-T
°C
Wind Press
QNH
hPa
Press
MSL
hPa
Rain since
9am
mm
Dir  Spd
km/h
Gust
km/h
Spd
kts
Gust
kts
31/06:30am 12.3 6.1 8.0 75 2.1 W 30 44 16 24 1013.0 - 1.0
31/06:00am 12.7 6.1 7.8 72 2.4 W 32 48 17 26 1012.5 1012.6 1.0
31/05:30am 12.5 5.8 7.2 70 2.6 W 32 43 17 23 1012.2 - 1.0
31/05:00am 12.4 5.5 7.3 71 2.5 W 33 48 18 26 1012.0 - 1.0
31/04:30am 12.6 5.8 7.7 72 2.4 W 33 46 18 25 1011.8 - 1.0
31/04:00am 12.5 5.9 8.4 76 2.0 W 33 44 18 24 1011.5 - 1.0
31/03:30am 12.5 5.1 8.2 75 2.1 W 37 50 20 27 1011.5 - 1.0
31/03:00am 12.1 5.4 9.5 84 1.3 W 35 48 19 26 1011.5 1011.6 1.0
31/02:30am 12.1 6.4 9.8 86 1.2 WNW 30 52 16 28 1011.3 - 1.0
31/02:26am 12.1 6.4 9.8 86 1.2 WNW 30 52 16 28 1011.2 - 1.0
31/02:00am 12.0 5.7 9.7 86 1.2 NW 33 46 18 25 1011.1 - 1.0
31/01:31am 12.2 5.6 9.9 86 1.2 WNW 35 54 19 29 1011.0 - 1.0
31/01:30am 12.2 6.0 9.9 86 1.2 WNW 33 50 18 27 1011.0 - 1.0
31/01:00am 12.1 6.4 9.8 86 1.2 NW 30 50 16 27 1010.8 - 1.0
31/12:30am 12.1 6.0 9.7 85 1.2 NW 32 54 17 29 1010.6 - 0.8
31/12:00am 11.8 5.5 8.8 82 1.5 NNW 32 50 17 27 1010.3 1010.4 0.8
 
Date/Time
EST
Temp
°C
App
Temp
°C
Dew
Point
°C
Rel
Hum
%
Delta-T
°C
Wind Press
QNH
hPa
Press
MSL
hPa
Rain since
9am
mm
Dir  Spd
km/h
Gust
km/h
Spd
kts
Gust
kts
30/11:30pm 12.6 5.2 8.3 75 2.1 NNW 37 57 20 31 1009.8 - 0.4
30/11:00pm 12.8 5.4 8.3 74 2.2 N 37 61 20 33 1009.7 - 0.0
30/10:30pm 13.3 5.4 7.7 69 2.8 NNW 39 63 21 34 1009.7 - 0.0
30/10:00pm 12.9 6.1 7.6 70 2.6 NNW 33 52 18 28 1009.6 - 0.0
30/09:30pm 13.8 5.3 7.1 64 3.3 NNW 41 63 22 34 1010.0 - 0.0
30/09:00pm 14.2 6.1 6.8 61 3.6 NNW 39 59 21 32 1009.7 1009.8 0.0
30/08:30pm 13.8 5.7 7.1 64 3.3 NNW 39 67 21 36 1009.6 - 0.0
30/08:02pm 13.7 6.4 7.0 64 3.3 NNW 35 54 19 29 1009.4 - 0.0
30/08:00pm 13.6 6.2 6.9 64 3.3 N 35 52 19 28 1009.5 - 0.0
30/07:30pm 13.5 6.6 7.3 66 3.0 NNW 33 54 18 29 1009.5 - 0.0
30/07:00pm 13.2 5.6 7.4 68 2.8 N 37 61 20 33 1009.5 - 0.0
30/06:30pm 13.2 4.4 7.4 68 2.8 N 43 67 23 36 1008.8 - 0.0
30/06:00pm 13.0 4.3 7.7 70 2.6 N 43 69 23 37 1008.7 1008.8 0.0
30/05:30pm 13.0 4.7 7.7 70 2.6 N 41 69 22 37 1009.5 - 0.0
30/05:00pm 12.7 6.1 7.6 71 2.5 N 32 56 17 30 1010.3 - 0.0
30/04:30pm 12.6 6.0 7.7 72 2.4 N 32 52 17 28 1010.6 - 0.0
30/04:22pm 12.6 6.7 7.7 72 2.4 N 28 46 15 25 1010.3 - 0.0
30/04:00pm 12.7 6.8 7.6 71 2.5 NNW 28 44 15 24 1011.5 - 0.0
30/03:30pm 13.1 7.3 8.0 71 2.5 N 28 44 15 24 1011.6 - 0.0
30/03:04pm 13.2 7.4 8.1 71 2.5 N 28 46 15 25 1011.9 - 0.0
30/03:00pm 13.3 7.9 8.2 71 2.5 N 26 43 14 23 1011.9 1012.0 0.0
30/02:30pm 13.4 6.9 8.0 70 2.7 NNW 32 50 17 27 1012.9 - 0.0
30/02:00pm 13.8 7.6 7.8 67 3.0 NNW 30 50 16 27 1013.1 - 0.0
30/01:30pm 14.2 7.4 7.9 66 3.1 NNW 33 56 18 30 1013.6 - 0.0
30/01:00pm 13.9 7.5 8.5 70 2.7 N 32 52 17 28 1013.8 - 0.0
30/12:55pm 13.7 8.0 8.5 71 2.6 N 28 48 15 26 1013.9 - 0.0
30/12:30pm 12.9 7.5 8.2 73 2.3 N 26 39 14 21 1015.2 - 0.0
30/12:00pm 12.7 7.3 8.2 74 2.2 NNW 26 39 14 21 1016.5 1016.6 0.0
30/11:30am 12.7 8.8 8.6 76 2.1 NNW 19 37 10 20 1017.3 - 0.0
30/11:00am 12.2 8.7 8.9 80 1.7 NNW 17 24 9 13 1017.8 - 0.0
30/10:30am 11.6 8.1 8.6 82 1.5 NNW 17 28 9 15 1018.2 - 0.0
30/10:00am 11.4 8.4 9.1 86 1.2 NNW 15 22 8 12 1018.5 - 0.0
30/09:30am 11.2 8.6 9.5 89 0.9 NNW 13 22 7 12 1018.7 - 0.0
30/09:00am 10.5 6.7 8.9 90 0.8 N 19 26 10 14 1018.6 1018.7 0.2
30/08:30am 10.3 7.2 8.9 91 0.7 NNW 15 24 8 13 1019.4 - 0.2
30/08:00am 9.8 7.3 8.4 91 0.7 NNW 11 15 6 8 1019.3 - 0.2
30/07:30am 9.7 6.5 8.3 91 0.7 NNW 15 19 8 10 1019.4 - 0.2
30/07:00am 9.5 7.0 8.1 91 0.7 NNW 11 17 6 9 1019.3 - 0.2
30/06:30am 9.6 6.7 8.2 91 0.7 NNW 13 17 7 9 1019.4 - 0.2
30/06:00am 9.4 6.5 8.0 91 0.7 N 13 17 7 9 1019.3 1019.4 0.2
30/05:30am 9.5 6.2 7.9 90 0.8 N 15 22 8 12 1019.4 - 0.2
30/05:00am 9.5 6.9 7.9 90 0.8 N 11 15 6 8 1019.6 - 0.2
30/04:30am 9.4 6.4 7.8 90 0.8 N 13 17 7 9 1019.9 - 0.2
30/04:00am 9.9 7.0 8.3 90 0.8 N 13 17 7 9 1020.1 - 0.2
30/03:30am 9.3 5.9 7.6 89 0.8 N 15 17 8 9 1020.3 - 0.2
30/03:00am 9.3 6.3 7.6 89 0.8 N 13 17 7 9 1020.4 1020.5 0.2
30/02:30am 9.6 6.3 7.9 89 0.8 N 15 19 8 10 1020.6 - 0.2
30/02:00am 9.4 6.3 7.3 87 1.0 N 13 17 7 9 1020.6 - 0.2
30/01:30am 9.8 6.8 7.6 86 1.1 NNW 13 15 7 8 1020.8 - 0.2
30/01:00am 10.5 7.9 7.7 83 1.4 NNW 11 15 6 8 1020.8 - 0.2
30/12:30am 11.5 8.7 8.4 81 1.5 W 13 17 7 9 1020.9 - 0.2
30/12:00am 11.6 8.8 8.5 81 1.5 W 13 19 7 10 1021.2 1021.3 0.2
 
Date/Time
EST
Temp
°C
App
Temp
°C
Dew
Point
°C
Rel
Hum
%
Delta-T
°C
Wind Press
QNH
hPa
Press
MSL
hPa
Rain since
9am
mm
Dir  Spd
km/h
Gust
km/h
Spd
kts
Gust
kts
29/11:30pm 11.7 8.5 8.4 80 1.6 W 15 22 8 12 1021.2 - 0.2
29/11:00pm 11.7 8.2 8.6 81 1.5 W 17 24 9 13 1021.3 - 0.2
29/10:30pm 11.7 8.1 8.4 80 1.6 W 17 24 9 13 1021.2 - 0.2
29/10:00pm 11.7 7.7 8.4 80 1.6 WSW 19 26 10 14 1021.2 - 0.2
29/09:30pm 11.9 7.8 8.7 81 1.6 WSW 20 28 11 15 1021.1 - 0.2
29/09:00pm 12.2 7.0 9.0 81 1.6 SW 26 32 14 17 1020.9 1021.0 0.2
29/08:30pm 12.4 8.1 9.2 81 1.6 WSW 22 32 12 17 1020.7 - 0.2
29/08:00pm 12.6 7.5 9.1 79 1.8 W 26 33 14 18 1020.3 - 0.2
29/07:30pm 12.5 7.3 9.0 79 1.8 W 26 37 14 20 1020.1 - 0.2
29/07:00pm 12.8 6.9 9.1 78 1.9 W 30 39 16 21 1020.0 - 0.2
29/06:30pm 12.7 7.2 9.2 79 1.8 W 28 37 15 20 1019.6 - 0.2
29/06:00pm 12.6 6.8 9.6 82 1.5 W 30 46 16 25 1019.2 1019.3 0.2
29/05:30pm 12.7 7.1 10.1 84 1.3 W 30 43 16 23 1018.9 - 0.2
29/05:00pm 12.6 7.3 10.0 84 1.3 W 28 37 15 20 1018.7 - 0.2
29/04:30pm 12.8 6.5 9.6 81 1.6 W 33 44 18 24 1018.5 - 0.2
29/04:00pm 12.9 7.7 10.1 83 1.4 W 28 43 15 23 1018.4 - 0.2
29/03:30pm 12.8 7.5 9.8 82 1.5 W 28 43 15 23 1018.5 - 0.2
29/03:00pm 12.8 6.5 9.6 81 1.6 W 33 46 18 25 1018.2 1018.3 0.2
29/02:30pm 13.1 6.9 9.9 81 1.6 W 33 48 18 26 1018.1 - 0.2
29/02:14pm 13.2 7.0 10.0 81 1.7 W 33 52 18 28 1018.0 - 0.2
29/02:00pm 13.3 6.7 10.1 81 1.7 W 35 46 19 25 1018.1 - 0.2
29/01:30pm 12.7 6.3 10.6 87 1.1 W 35 48 19 26 1018.0 - 0.2
29/01:00pm 12.4 6.9 10.5 88 1.0 W 30 41 16 22 1018.4 - 0.2
29/12:30pm 12.6 7.0 10.3 86 1.2 W 30 43 16 23 1018.5 - 0.2
29/12:00pm 12.9 6.8 10.4 85 1.3 W 33 46 18 25 1018.5 1018.6 0.2
29/11:30am 12.9 6.8 10.4 85 1.3 W 33 44 18 24 1018.9 - 0.2
29/11:16am 12.9 6.4 10.4 85 1.3 W 35 54 19 29 1018.9 - 0.2
29/11:00am 12.7 6.3 10.6 87 1.1 W 35 50 19 27 1018.8 - 0.2
29/10:30am 12.4 5.3 10.8 90 0.8 W 39 54 21 29 1018.7 - 0.2
29/10:00am 12.3 6.3 10.9 91 0.7 W 33 52 18 28 1018.5 - 0.0
29/09:39am 11.8 5.8 10.7 93 0.6 W 33 54 18 29 1018.3 - 0.0
29/09:30am 12.3 6.7 11.4 94 0.5 WNW 32 44 17 24 1018.4 - 0.0
29/09:00am 12.0 6.7 11.1 94 0.5 WNW 30 41 16 22 1018.5 1018.6 10.2
29/08:30am 11.7 4.6 10.8 94 0.5 W 39 63 21 34 1018.5 - 10.0
29/08:22am 11.3 4.4 10.4 94 0.5 W 37 63 20 34 1018.1 - 9.6
29/08:08am 11.5 5.4 10.6 94 0.5 WNW 33 52 18 28 1018.3 - 7.6
29/08:00am 11.4 4.2 10.5 94 0.5 WNW 39 52 21 28 1018.1 - 7.4
29/07:40am 11.7 6.3 10.8 94 0.5 WNW 30 48 16 26 1018.0 - 7.2
29/07:30am 11.4 5.5 10.5 94 0.5 WNW 32 46 17 25 1018.0 - 7.2
29/07:00am 11.4 4.9 10.5 94 0.5 WNW 35 48 19 26 1017.8 - 5.6
29/06:30am 11.2 5.1 10.3 94 0.5 WNW 33 54 18 29 1017.8 - 5.0
29/06:28am 11.2 5.3 10.3 94 0.5 WNW 32 50 17 27 1017.7 - 4.8
29/06:00am 11.3 5.3 10.2 93 0.6 WNW 32 43 17 23 1017.5 1017.6 4.2
29/05:30am 11.2 4.2 10.1 93 0.6 WNW 37 56 20 30 1017.5 - 4.0
29/05:15am 11.4 5.3 10.3 93 0.6 WNW 33 52 18 28 1017.3 - 3.6
29/05:00am 11.2 5.2 10.1 93 0.6 NW 32 46 17 25 1017.2 - 3.4
29/04:30am 11.2 5.2 10.1 93 0.6 NW 32 52 17 28 1017.3 - 3.4
29/04:00am 11.2 5.0 10.1 93 0.6 NW 33 52 18 28 1017.4 - 3.4
29/03:49am 11.2 5.2 10.1 93 0.6 WNW 32 50 17 27 1017.5 - 3.2
29/03:30am 11.1 5.1 10.0 93 0.6 WNW 32 46 17 25 1017.7 - 3.2
29/03:00am 11.0 4.9 9.9 93 0.6 NW 32 50 17 27 1017.9 1018.0 3.0
29/02:41am 11.0 5.7 9.9 93 0.6 WNW 28 50 15 27 1018.1 - 3.0
29/02:30am 11.0 5.3 9.8 92 0.6 WNW 30 44 16 24 1018.1 - 3.0
29/02:14am 11.1 5.0 9.9 92 0.6 WNW 32 50 17 27 1018.3 - 3.0
29/02:00am 11.3 4.7 9.9 91 0.7 WNW 35 50 19 27 1018.3 - 2.6
29/01:30am 11.4 5.3 9.8 90 0.8 WNW 32 50 17 27 1018.4 - 2.4
29/01:02am 11.4 5.3 9.8 90 0.8 NW 32 50 17 27 1018.3 - 2.4
29/01:00am 11.4 5.1 9.8 90 0.8 NW 33 50 18 27 1018.3 - 2.4
29/12:40am 11.3 5.0 9.7 90 0.8 NW 33 52 18 28 1018.5 - 2.4
29/12:30am 11.2 4.5 9.6 90 0.8 NW 35 48 19 26 1018.6 - 2.4
29/12:04am 11.1 4.9 9.5 90 0.8 NW 32 50 17 27 1018.9 - 2.4
29/12:00am 11.1 4.7 9.5 90 0.8 NW 33 50 18 27 1019.0 1019.1 2.4
 
Date/Time
EST
Temp
°C
App
Temp
°C
Dew
Point
°C
Rel
Hum
%
Delta-T
°C
Wind Press
QNH
hPa
Press
MSL
hPa
Rain since
9am
mm
Dir  Spd
km/h
Gust
km/h
Spd
kts
Gust
kts
28/11:30pm 11.1 4.8 9.7 91 0.7 NW 33 50 18 27 1019.2 - 2.4
28/11:08pm 11.0 4.9 9.6 91 0.7 WNW 32 54 17 29 1019.3 - 2.4
28/11:00pm 11.1 4.9 9.5 90 0.8 WNW 32 48 17 26 1019.5 - 2.4
28/10:56pm 11.1 5.3 9.5 90 0.8 WNW 30 48 16 26 1019.5 - 2.4
28/10:30pm 11.3 5.2 9.6 89 0.9 WNW 32 48 17 26 1019.7 - 2.4
28/10:10pm 11.4 5.3 9.7 89 0.9 WNW 32 50 17 27 1019.8 - 2.4
28/10:00pm 11.5 5.4 9.9 90 0.8 WNW 32 48 17 26 1019.8 - 2.4
28/09:30pm 11.3 5.1 9.9 91 0.7 WNW 33 56 18 30 1019.8 - 2.4
28/09:00pm 11.2 5.2 10.1 93 0.6 WNW 32 59 17 32 1020.0 1020.1 2.4
28/08:30pm 11.3 5.1 10.2 93 0.6 WNW 33 52 18 28 1020.1 - 2.4
28/08:05pm 11.5 5.5 10.2 92 0.7 WNW 32 50 17 27 1020.3 - 2.2
28/08:00pm 11.5 5.5 10.2 92 0.7 WNW 32 46 17 25 1020.2 - 2.2
28/07:30pm 11.6 5.6 10.2 91 0.7 WNW 32 46 17 25 1020.3 - 1.0
28/07:00pm 12.0 4.0 10.4 90 0.8 WNW 43 61 23 33 1020.3 - 1.0
28/06:52pm 12.0 4.7 10.2 89 0.9 WNW 39 59 21 32 1020.2 - 1.0
28/06:30pm 12.0 4.6 9.7 86 1.2 WNW 39 56 21 30 1020.2 - 0.6
28/06:12pm 12.3 6.6 9.9 85 1.2 WNW 30 48 16 26 1020.0 - 0.4
28/06:00pm 12.4 5.8 10.0 85 1.2 WNW 35 46 19 25 1020.1 1020.2 0.4
28/05:48pm 12.2 5.6 9.9 86 1.2 WNW 35 54 19 29 1020.0 - 0.4
28/05:30pm 12.5 5.5 9.9 84 1.3 WNW 37 50 20 27 1020.1 - 0.4
28/05:00pm 12.6 5.6 9.8 83 1.4 WNW 37 56 20 30 1020.1 - 0.4
28/04:30pm 13.0 6.2 9.3 78 1.9 W 35 57 19 31 1020.0 - 0.4
28/04:00pm 12.6 5.8 9.4 81 1.6 W 35 54 19 29 1020.0 - 0.4
28/03:30pm 13.2 6.0 9.3 77 2.0 WNW 37 59 20 32 1019.9 - 0.4
28/03:00pm 12.4 4.8 8.9 79 1.8 WNW 39 57 21 31 1020.0 1020.1 0.4
28/02:37pm 13.0 6.1 8.7 75 2.2 WNW 35 54 19 29 1019.9 - 0.4
28/02:30pm 12.8 4.7 8.5 75 2.1 WNW 41 54 22 29 1019.9 - 0.4
28/02:10pm 12.5 4.3 8.0 74 2.2 WNW 41 61 22 33 1020.0 - 0.4
28/02:00pm 12.6 4.0 8.3 75 2.1 WNW 43 57 23 31 1020.0 - 0.4
28/01:30pm 12.2 4.6 8.9 80 1.7 WNW 39 61 21 33 1020.1 - 0.4
28/01:02pm 12.2 5.6 9.9 86 1.2 WNW 35 54 19 29 1020.2 - 0.4
28/01:00pm 12.1 5.1 9.8 86 1.2 WNW 37 54 20 29 1020.2 - 0.4
28/12:30pm 11.5 4.1 9.8 89 0.9 WNW 39 57 21 31 1020.7 - 0.2
28/12:00pm 11.4 5.8 10.0 91 0.7 WNW 30 48 16 26 1020.8 1020.9 0.2
28/11:50am 11.4 6.1 10.0 91 0.7 WNW 28 46 15 25 1020.9 - 0.2
28/11:30am 11.3 4.7 9.9 91 0.7 WNW 35 52 19 28 1021.2 - 0.2
28/11:11am 11.0 3.9 9.6 91 0.7 WNW 37 57 20 31 1021.4 - 0.0
28/11:00am 11.1 5.0 9.7 91 0.7 WNW 32 48 17 26 1021.4 - 0.0
28/10:41am 11.2 5.1 9.8 91 0.7 WNW 32 50 17 27 1021.2 - 0.0
28/10:30am 11.3 4.7 9.9 91 0.7 WNW 35 52 19 28 1021.1 - 0.0
28/10:00am 10.8 4.4 9.4 91 0.7 WNW 33 54 18 29 1021.1 - 0.0
28/09:30am 10.5 4.7 9.3 92 0.6 WNW 30 52 16 28 1020.9 - 0.0
28/09:06am 10.9 4.6 9.7 92 0.6 WNW 33 52 18 28 1020.9 - 0.0
28/09:00am 10.8 4.6 9.4 91 0.7 WNW 32 44 17 24 1020.9 1021.0 4.0
28/08:30am 10.6 4.7 9.2 91 0.7 WNW 30 43 16 23 1020.7 - 4.0
28/08:01am 11.1 4.5 9.9 92 0.6 WNW 35 57 19 31 1020.3 - 4.0
28/08:00am 11.2 4.6 9.9 92 0.7 WNW 35 52 19 28 1020.4 - 4.0
28/07:38am 10.5 3.3 9.3 92 0.6 WNW 37 56 20 30 1020.4 - 4.0
28/07:30am 10.5 3.0 9.3 92 0.6 WNW 39 56 21 30 1020.3 - 4.0
28/07:00am 10.2 3.7 9.0 92 0.6 NW 33 54 18 29 1020.1 - 4.0
28/06:32am 10.3 3.9 9.2 93 0.5 WNW 33 52 18 28 1019.8 - 4.0

Other Formats:

Comma delimited format used in spreadsheet applications
http://www.bom.gov.au/fwo/IDV60801/IDV60801.94842.axf

JavaScript Object Notation format (JSON) in row-major order
http://www.bom.gov.au/fwo/IDV60801/IDV60801.94842.json